Time;durP1;ratioP1;P1;durP2;ratioP2;P2;SDS_P1;SDS_P2;PMS_P1;PMS_P2;Temp;Humidity;BMP_temperature;BMP_pressure;BME280_temperature;BME280_humidity;BME280_pressure;Samples;Min_cycle;Max_cycle;Signal;HPM_P1;HPM_P2
2023/05/08 00:00:09;;;;;;;3.45;1.90;;;;;;;;;;2090242;28;20025;-65
2023/05/08 00:01:29;;;;;;;4.32;1.70;;;;;;;;;;2090027;28;20016;-65
2023/05/08 00:02:49;;;;;;;2.15;1.83;;;;;;;;;;2092888;28;20099;-66
2023/05/08 00:04:08;;;;;;;2.03;1.92;;;;;;;;;;2090666;28;20032;-65
2023/05/08 00:05:27;;;;;;;2.60;1.45;;;;;;;;;;2089638;28;20068;-66
2023/05/08 00:06:46;;;;;;;2.00;1.75;;;;;;;;;;2087075;28;21220;-65
2023/05/08 00:08:05;;;;;;;2.58;1.55;;;;;;;;;;2085976;28;20482;-65
2023/05/08 00:09:24;;;;;;;3.78;1.95;;;;;;;;;;2089650;28;20026;-65
2023/05/08 00:10:43;;;;;;;2.22;1.75;;;;;;;;;;2093371;28;20032;-65
2023/05/08 00:12:02;;;;;;;2.22;1.80;;;;;;;;;;2088424;28;20032;-65
2023/05/08 00:13:21;;;;;;;2.53;1.80;;;;;;;;;;2088674;28;20155;-65
2023/05/08 00:14:40;;;;;;;8.63;2.22;;;;;;;;;;2090467;28;20029;-64
2023/05/08 00:15:59;;;;;;;6.50;2.42;;;;;;;;;;2086487;28;20025;-64
2023/05/08 00:17:18;;;;;;;3.78;1.60;;;;;;;;;;2092695;28;20111;-65
2023/05/08 00:18:38;;;;;;;2.95;1.33;;;;;;;;;;2090148;28;20029;-65
2023/05/08 00:19:57;;;;;;;2.97;1.88;;;;;;;;;;2098535;28;20032;-66
2023/05/08 00:21:16;;;;;;;2.55;1.73;;;;;;;;;;2088533;28;20028;-65
2023/05/08 00:22:35;;;;;;;3.53;1.88;;;;;;;;;;2090858;28;20033;-66
2023/05/08 00:23:54;;;;;;;3.20;1.52;;;;;;;;;;2089618;28;20346;-66
2023/05/08 00:25:13;;;;;;;2.92;1.80;;;;;;;;;;2091609;28;20070;-66
2023/05/08 00:26:33;;;;;;;3.00;1.85;;;;;;;;;;2090306;28;20020;-66
2023/05/08 00:27:52;;;;;;;1.67;1.20;;;;;;;;;;2092638;28;20033;-66
2023/05/08 00:29:11;;;;;;;4.15;1.70;;;;;;;;;;2083396;28;20029;-66
2023/05/08 00:30:30;;;;;;;1.73;1.60;;;;;;;;;;2088993;28;20532;-65
2023/05/08 00:31:49;;;;;;;2.65;1.38;;;;;;;;;;2087955;28;20033;-66
2023/05/08 00:33:08;;;;;;;2.17;1.50;;;;;;;;;;2086603;28;20033;-66
2023/05/08 00:34:27;;;;;;;2.90;1.65;;;;;;;;;;2092833;28;20029;-66
2023/05/08 00:35:46;;;;;;;3.70;1.80;;;;;;;;;;2093053;28;20104;-66
2023/05/08 00:37:05;;;;;;;3.28;1.52;;;;;;;;;;2091352;28;20032;-65
2023/05/08 00:38:24;;;;;;;1.92;1.70;;;;;;;;;;2088176;28;20033;-65
2023/05/08 00:39:43;;;;;;;2.35;1.50;;;;;;;;;;2091944;28;20064;-65
2023/05/08 00:41:02;;;;;;;3.38;1.63;;;;;;;;;;2094978;28;20496;-66
2023/05/08 00:42:21;;;;;;;3.15;1.42;;;;;;;;;;2092136;28;20024;-65
2023/05/08 00:43:40;;;;;;;3.17;2.10;;;;;;;;;;2090179;28;20073;-66
2023/05/08 00:44:59;;;;;;;2.47;1.42;;;;;;;;;;2090642;28;20481;-66
2023/05/08 00:46:18;;;;;;;1.95;1.33;;;;;;;;;;2089999;28;20037;-65
2023/05/08 00:47:37;;;;;;;2.13;1.77;;;;;;;;;;2090247;28;20135;-65
2023/05/08 00:48:56;;;;;;;2.53;1.52;;;;;;;;;;2088862;28;20488;-66
2023/05/08 00:50:16;;;;;;;2.72;1.50;;;;;;;;;;2091744;28;20029;-65
2023/05/08 00:51:35;;;;;;;3.22;1.23;;;;;;;;;;2089917;28;20025;-65
2023/05/08 00:52:54;;;;;;;2.65;1.98;;;;;;;;;;2091257;28;20108;-65
2023/05/08 00:54:13;;;;;;;5.85;1.83;;;;;;;;;;2090559;28;20029;-65
2023/05/08 00:55:33;;;;;;;3.67;1.88;;;;;;;;;;2090690;28;20498;-65
2023/05/08 00:56:53;;;;;;;2.08;1.63;;;;;;;;;;2088165;28;20033;-65
2023/05/08 00:58:12;;;;;;;3.63;2.03;;;;;;;;;;2088407;28;20113;-66
2023/05/08 00:59:31;;;;;;;2.33;1.60;;;;;;;;;;2089853;28;20037;-65
2023/05/08 01:00:53;;;;;;;3.20;2.05;;;;;;;;;;2089536;28;20590;-66
2023/05/08 01:02:12;;;;;;;2.20;1.45;;;;;;;;;;2090917;28;20183;-66
2023/05/08 01:03:32;;;;;;;2.15;1.80;;;;;;;;;;2089254;28;20404;-66
2023/05/08 01:04:52;;;;;;;2.78;1.90;;;;;;;;;;2088487;28;20123;-66
2023/05/08 01:06:11;;;;;;;3.22;1.77;;;;;;;;;;2089966;28;20025;-65
2023/05/08 01:07:31;;;;;;;4.72;2.33;;;;;;;;;;2090918;28;20040;-66
2023/05/08 01:08:50;;;;;;;5.95;2.10;;;;;;;;;;2087169;28;20037;-66
2023/05/08 01:10:09;;;;;;;3.70;2.58;;;;;;;;;;2091277;28;20029;-65
2023/05/08 01:11:37;;;;;;;3.00;2.17;;;;;;;;;;2090746;28;20108;-65
2023/05/08 01:13:07;;;;;;;4.10;1.80;;;;;;;;;;2092291;28;20029;-66
2023/05/08 01:14:37;;;;;;;2.45;2.08;;;;;;;;;;2088401;28;20045;-66
2023/05/08 01:16:01;;;;;;;1.80;1.70;;;;;;;;;;2087290;28;20477;-66
2023/05/08 01:17:35;;;;;;;4.50;2.13;;;;;;;;;;2091073;28;20398;-65
2023/05/08 01:19:06;;;;;;;1.88;1.77;;;;;;;;;;2089666;28;20021;-65
2023/05/08 01:20:26;;;;;;;3.03;1.88;;;;;;;;;;2090879;28;20032;-66
2023/05/08 01:21:50;;;;;;;2.20;2.00;;;;;;;;;;2091915;28;20029;-65
2023/05/08 01:23:12;;;;;;;2.10;1.90;;;;;;;;;;2090962;28;21248;-65
2023/05/08 01:24:58;;;;;;;2.55;1.92;;;;;;;;;;2088963;28;20025;-65
2023/05/08 01:26:17;;;;;;;1.88;1.77;;;;;;;;;;2089158;28;20522;-66
2023/05/08 01:28:07;;;;;;;6.28;2.10;;;;;;;;;;2085436;28;20104;-66
2023/05/08 01:29:44;;;;;;;5.78;2.15;;;;;;;;;;2093782;28;20037;-66
2023/05/08 01:31:10;;;;;;;2.22;2.00;;;;;;;;;;2089727;28;20454;-66
2023/05/08 01:32:34;;;;;;;2.90;1.75;;;;;;;;;;2088651;28;20640;-66
2023/05/08 01:34:19;;;;;;;3.40;2.00;;;;;;;;;;2090014;28;20025;-66
2023/05/08 01:35:48;;;;;;;2.92;1.80;;;;;;;;;;2084495;28;20038;-66
2023/05/08 01:37:11;;;;;;;5.88;1.80;;;;;;;;;;2091592;28;20024;-65
2023/05/08 01:38:54;;;;;;;3.05;1.98;;;;;;;;;;2087802;28;20056;-66
2023/05/08 01:40:33;;;;;;;2.55;2.03;;;;;;;;;;2067099;28;20026;-66
2023/05/08 01:42:05;;;;;;;3.15;1.63;;;;;;;;;;2090056;28;20028;-65
2023/05/08 01:43:44;;;;;;;2.20;2.00;;;;;;;;;;2091954;28;20463;-65
2023/05/08 01:45:06;;;;;;;2.95;1.90;;;;;;;;;;2094652;28;20068;-64
2023/05/08 01:46:26;;;;;;;3.45;1.75;;;;;;;;;;2088348;28;20078;-64
2023/05/08 01:47:48;;;;;;;4.13;1.85;;;;;;;;;;2090628;28;20095;-65
2023/05/08 01:49:09;;;;;;;2.40;1.30;;;;;;;;;;2084482;28;20111;-65
2023/05/08 01:50:42;;;;;;;2.38;1.52;;;;;;;;;;2090862;28;20095;-65
2023/05/08 01:52:04;;;;;;;3.80;1.70;;;;;;;;;;2087112;28;20033;-64
2023/05/08 01:53:25;;;;;;;3.08;1.60;;;;;;;;;;2092069;28;20107;-65
2023/05/08 01:54:49;;;;;;;2.53;1.55;;;;;;;;;;2084216;28;20482;-66
2023/05/08 01:56:11;;;;;;;2.28;1.90;;;;;;;;;;2090768;28;20032;-64
2023/05/08 01:57:32;;;;;;;2.55;2.13;;;;;;;;;;2091772;28;20175;-65
2023/05/08 01:58:51;;;;;;;3.05;1.75;;;;;;;;;;2088233;28;20490;-65
2023/05/08 02:00:11;;;;;;;2.15;1.70;;;;;;;;;;2090856;28;20508;-65
2023/05/08 02:01:31;;;;;;;1.80;1.67;;;;;;;;;;2091357;28;20028;-64
2023/05/08 02:02:50;;;;;;;2.38;2.03;;;;;;;;;;2087965;28;20033;-65
2023/05/08 02:04:10;;;;;;;1.70;1.60;;;;;;;;;;2088782;28;20409;-64
2023/05/08 02:05:30;;;;;;;2.10;1.70;;;;;;;;;;2092860;28;20040;-65
2023/05/08 02:06:50;;;;;;;1.80;1.70;;;;;;;;;;2092471;28;20107;-64
2023/05/08 02:08:10;;;;;;;2.75;1.80;;;;;;;;;;2093917;28;20079;-65
2023/05/08 02:09:30;;;;;;;2.13;1.90;;;;;;;;;;2091196;28;20032;-64
2023/05/08 02:10:50;;;;;;;2.97;1.55;;;;;;;;;;2091983;28;20474;-65
2023/05/08 02:12:10;;;;;;;2.15;1.83;;;;;;;;;;2095016;28;20037;-65
2023/05/08 02:13:30;;;;;;;4.07;1.88;;;;;;;;;;2094145;28;20980;-65
2023/05/08 02:14:51;;;;;;;2.22;1.80;;;;;;;;;;2089446;28;20020;-65
2023/05/08 02:16:11;;;;;;;2.20;2.00;;;;;;;;;;2087928;28;20029;-65
2023/05/08 02:17:30;;;;;;;2.45;1.65;;;;;;;;;;2096004;28;20024;-65
2023/05/08 02:18:51;;;;;;;3.20;1.73;;;;;;;;;;2093577;28;20497;-65
2023/05/08 02:20:13;;;;;;;4.32;1.75;;;;;;;;;;2091327;28;20025;-65
2023/05/08 02:21:33;;;;;;;1.55;1.45;;;;;;;;;;2093924;28;20016;-66
2023/05/08 02:22:52;;;;;;;3.03;1.77;;;;;;;;;;2088131;28;20020;-66
2023/05/08 02:24:12;;;;;;;3.30;1.98;;;;;;;;;;2089441;28;20445;-66
2023/05/08 02:25:31;;;;;;;3.60;2.10;;;;;;;;;;2091441;28;20021;-66
2023/05/08 02:26:51;;;;;;;2.13;1.60;;;;;;;;;;2093249;28;20025;-65
2023/05/08 02:28:11;;;;;;;5.35;2.03;;;;;;;;;;2091564;28;20036;-65
2023/05/08 02:29:30;;;;;;;2.08;1.77;;;;;;;;;;2095245;28;20037;-65
2023/05/08 02:30:50;;;;;;;1.77;1.67;;;;;;;;;;2088083;28;20060;-66
2023/05/08 02:32:10;;;;;;;2.58;1.63;;;;;;;;;;2089867;28;20028;-66
2023/05/08 02:33:30;;;;;;;2.58;1.70;;;;;;;;;;2087353;28;20498;-66
2023/05/08 02:34:51;;;;;;;1.92;1.50;;;;;;;;;;2088373;28;20521;-66
2023/05/08 02:36:12;;;;;;;2.22;1.63;;;;;;;;;;2090880;28;20405;-65
2023/05/08 02:37:32;;;;;;;3.58;1.83;;;;;;;;;;2093091;28;20021;-65
2023/05/08 02:38:53;;;;;;;5.90;1.67;;;;;;;;;;2094949;28;20033;-65
2023/05/08 02:40:12;;;;;;;1.50;1.40;;;;;;;;;;2090107;28;20055;-65
2023/05/08 02:41:32;;;;;;;3.15;1.77;;;;;;;;;;2090925;28;20033;-66
2023/05/08 02:42:51;;;;;;;3.90;1.83;;;;;;;;;;2094365;28;20024;-65
2023/05/08 02:44:11;;;;;;;2.88;1.77;;;;;;;;;;2089488;28;20520;-65
2023/05/08 02:45:37;;;;;;;2.47;1.80;;;;;;;;;;2089304;28;20469;-65
2023/05/08 02:46:59;;;;;;;2.97;1.60;;;;;;;;;;2090716;28;20032;-66
2023/05/08 02:48:18;;;;;;;2.90;2.00;;;;;;;;;;2092245;28;20029;-65
2023/05/08 02:49:55;;;;;;;2.58;1.85;;;;;;;;;;2092745;28;20396;-65
2023/05/08 02:51:20;;;;;;;4.07;1.60;;;;;;;;;;2093709;28;20025;-65
2023/05/08 02:52:53;;;;;;;5.80;2.03;;;;;;;;;;2091897;28;20033;-66
2023/05/08 02:54:34;;;;;;;1.80;1.65;;;;;;;;;;2089141;28;20036;-65
2023/05/08 02:55:56;;;;;;;3.35;1.77;;;;;;;;;;2091911;28;20481;-66
2023/05/08 02:57:18;;;;;;;7.20;2.10;;;;;;;;;;2088291;28;20041;-66
2023/05/08 02:58:47;;;;;;;2.65;1.67;;;;;;;;;;2092634;28;20029;-65
2023/05/08 03:00:11;;;;;;;5.13;1.92;;;;;;;;;;2091831;28;20103;-65
2023/05/08 03:01:36;;;;;;;3.60;1.60;;;;;;;;;;2094464;28;20436;-66
2023/05/08 03:02:58;;;;;;;2.97;1.67;;;;;;;;;;2090909;28;21383;-65
2023/05/08 03:04:37;;;;;;;1.95;1.85;;;;;;;;;;2091360;28;20474;-65
2023/05/08 03:05:58;;;;;;;1.70;1.60;;;;;;;;;;2086882;28;20033;-65
2023/05/08 03:07:19;;;;;;;2.85;1.60;;;;;;;;;;2091596;28;20111;-65
2023/05/08 03:08:39;;;;;;;4.60;2.00;;;;;;;;;;2090536;28;20029;-66
2023/05/08 03:10:04;;;;;;;4.03;2.13;;;;;;;;;;2091324;28;20024;-65
2023/05/08 03:11:25;;;;;;;4.18;2.00;;;;;;;;;;2091082;28;20029;-66
2023/05/08 03:12:45;;;;;;;3.47;1.92;;;;;;;;;;2090185;28;20040;-66
2023/05/08 03:14:05;;;;;;;2.28;2.00;;;;;;;;;;2091508;28;20032;-66
2023/05/08 03:15:33;;;;;;;3.42;1.70;;;;;;;;;;2091146;28;20144;-66
2023/05/08 03:16:54;;;;;;;5.82;1.90;;;;;;;;;;2090949;28;20021;-66
2023/05/08 03:18:15;;;;;;;3.33;1.90;;;;;;;;;;2092896;28;20354;-65
2023/05/08 03:19:36;;;;;;;3.47;1.42;;;;;;;;;;2092114;28;20060;-65
2023/05/08 03:20:56;;;;;;;2.58;1.90;;;;;;;;;;2088441;28;20036;-65
2023/05/08 03:22:18;;;;;;;4.70;2.22;;;;;;;;;;2090609;28;20413;-65
2023/05/08 03:23:37;;;;;;;5.45;1.85;;;;;;;;;;2096648;28;20028;-65
2023/05/08 03:24:58;;;;;;;2.08;1.88;;;;;;;;;;2092824;28;20020;-65
2023/05/08 03:26:18;;;;;;;5.28;1.80;;;;;;;;;;2090698;28;20552;-65
2023/05/08 03:27:37;;;;;;;5.63;2.28;;;;;;;;;;2092995;28;20428;-65
2023/05/08 03:28:56;;;;;;;3.58;2.00;;;;;;;;;;2095774;28;20111;-66
2023/05/08 03:30:16;;;;;;;2.13;1.88;;;;;;;;;;2091647;28;20051;-66
2023/05/08 03:31:36;;;;;;;2.67;2.03;;;;;;;;;;2087644;28;20381;-65
2023/05/08 03:32:56;;;;;;;6.78;2.47;;;;;;;;;;2090967;28;20337;-64
2023/05/08 03:34:16;;;;;;;5.65;1.90;;;;;;;;;;2093816;28;20562;-64
2023/05/08 03:35:36;;;;;;;2.88;1.92;;;;;;;;;;2088171;28;20445;-65
2023/05/08 03:36:55;;;;;;;3.38;1.67;;;;;;;;;;2089092;28;20032;-65
2023/05/08 03:38:15;;;;;;;3.30;1.92;;;;;;;;;;2095308;28;20095;-65
2023/05/08 03:39:34;;;;;;;3.80;2.00;;;;;;;;;;2093101;28;20493;-64
2023/05/08 03:40:53;;;;;;;4.18;2.08;;;;;;;;;;2089175;28;20029;-65
2023/05/08 03:42:20;;;;;;;3.20;1.50;;;;;;;;;;2091826;28;20024;-64
2023/05/08 03:43:40;;;;;;;4.47;2.28;;;;;;;;;;2092378;28;20393;-65
2023/05/08 03:44:59;;;;;;;6.05;2.00;;;;;;;;;;2090831;28;20527;-64
2023/05/08 03:46:19;;;;;;;6.88;1.83;;;;;;;;;;2085900;28;20075;-64
2023/05/08 03:47:39;;;;;;;4.60;1.73;;;;;;;;;;2093996;28;20029;-65
2023/05/08 03:48:59;;;;;;;2.83;1.80;;;;;;;;;;2092034;28;20037;-65
2023/05/08 03:50:17;;;;;;;3.33;2.28;;;;;;;;;;2092404;28;20036;-65
2023/05/08 03:51:40;;;;;;;3.67;2.08;;;;;;;;;;2091624;28;20052;-65
2023/05/08 03:52:59;;;;;;;8.07;2.03;;;;;;;;;;2093570;28;20478;-65
2023/05/08 03:54:18;;;;;;;4.35;1.77;;;;;;;;;;2092799;28;20024;-65
2023/05/08 03:55:37;;;;;;;3.88;2.00;;;;;;;;;;2090301;28;20061;-64
2023/05/08 03:56:56;;;;;;;3.95;2.03;;;;;;;;;;2087386;28;20029;-65
2023/05/08 03:58:33;;;;;;;4.90;1.80;;;;;;;;;;2091175;28;20036;-64
2023/05/08 04:00:03;;;;;;;2.60;2.00;;;;;;;;;;2093555;28;20041;-64
2023/05/08 04:01:26;;;;;;;3.58;1.85;;;;;;;;;;2093852;28;20033;-65
2023/05/08 04:02:45;;;;;;;3.05;2.00;;;;;;;;;;2089777;28;20633;-65
2023/05/08 04:04:16;;;;;;;3.72;1.90;;;;;;;;;;2087363;28;20029;-65
2023/05/08 04:05:36;;;;;;;10.30;2.28;;;;;;;;;;2087903;28;20652;-65
2023/05/08 04:06:59;;;;;;;5.45;2.15;;;;;;;;;;2094158;28;20029;-65
2023/05/08 04:08:18;;;;;;;;;;;;;;;;;;2095226;28;20029;-65
2023/05/08 04:09:54;;;;;;;6.28;2.33;;;;;;;;;;2091672;28;19916;-66
2023/05/08 04:11:20;;;;;;;4.38;1.98;;;;;;;;;;2090194;28;20033;-66
2023/05/08 04:12:39;;;;;;;6.82;2.53;;;;;;;;;;2091590;28;20020;-65
2023/05/08 04:14:01;;;;;;;4.88;2.20;;;;;;;;;;2088992;28;20028;-65
2023/05/08 04:15:22;;;;;;;5.00;2.05;;;;;;;;;;2090065;28;20032;-65
2023/05/08 04:16:46;;;;;;;4.57;2.15;;;;;;;;;;2088599;28;20569;-65
2023/05/08 04:18:09;;;;;;;2.42;2.22;;;;;;;;;;2087609;28;20032;-64
2023/05/08 04:19:28;;;;;;;;;;;;;;;;;;2091120;28;20427;-66
2023/05/08 04:20:48;;;;;;;6.85;2.33;;;;;;;;;;2088559;28;19904;-66
2023/05/08 04:22:08;;;;;;;3.70;2.17;;;;;;;;;;2087229;28;20036;-65
2023/05/08 04:23:27;;;;;;;3.83;2.05;;;;;;;;;;2089933;28;20032;-68
2023/05/08 04:24:47;;;;;;;2.85;1.73;;;;;;;;;;2091533;28;20060;-66
2023/05/08 04:26:07;;;;;;;5.40;2.35;;;;;;;;;;2085727;28;20036;-65
2023/05/08 04:27:27;;;;;;;11.23;2.70;;;;;;;;;;2086326;28;20049;-67
2023/05/08 04:28:47;;;;;;;4.38;2.15;;;;;;;;;;2090663;28;20389;-66
2023/05/08 04:30:07;;;;;;;7.22;2.42;;;;;;;;;;2085122;28;20037;-66
2023/05/08 04:31:26;;;;;;;4.80;2.05;;;;;;;;;;2076831;28;20234;-65
2023/05/08 04:32:46;;;;;;;4.70;2.30;;;;;;;;;;2092156;28;20747;-66
2023/05/08 04:34:05;;;;;;;6.13;2.83;;;;;;;;;;2090121;28;20056;-66
2023/05/08 04:35:25;;;;;;;4.53;2.25;;;;;;;;;;2081592;28;20029;-65
2023/05/08 04:36:44;;;;;;;2.40;1.90;;;;;;;;;;2086418;28;20028;-66
2023/05/08 04:38:02;;;;;;;2.65;2.30;;;;;;;;;;2089507;28;20497;-66
2023/05/08 04:39:21;;;;;;;2.55;2.22;;;;;;;;;;2094365;28;20025;-66
2023/05/08 04:40:41;;;;;;;2.97;2.03;;;;;;;;;;2089116;28;20032;-66
2023/05/08 04:42:02;;;;;;;5.57;2.95;;;;;;;;;;2089586;28;20020;-65
2023/05/08 04:43:21;;;;;;;5.00;2.33;;;;;;;;;;2090749;28;20132;-66
2023/05/08 04:44:40;;;;;;;5.68;2.13;;;;;;;;;;2088623;28;20041;-66
2023/05/08 04:45:59;;;;;;;2.53;2.00;;;;;;;;;;2084518;28;20033;-67
2023/05/08 04:47:18;;;;;;;6.43;2.85;;;;;;;;;;2090260;28;20479;-66
2023/05/08 04:48:37;;;;;;;4.00;2.13;;;;;;;;;;2090482;28;20128;-65
2023/05/08 04:49:56;;;;;;;5.13;2.20;;;;;;;;;;2090944;28;20025;-65
2023/05/08 04:51:15;;;;;;;7.55;2.17;;;;;;;;;;2092002;28;20033;-65
2023/05/08 04:52:34;;;;;;;5.63;2.20;;;;;;;;;;2089180;28;20037;-65
2023/05/08 04:53:53;;;;;;;4.13;2.63;;;;;;;;;;2089674;28;20028;-67
2023/05/08 04:55:12;;;;;;;3.97;2.42;;;;;;;;;;2089070;28;20041;-65
2023/05/08 04:56:30;;;;;;;5.55;2.10;;;;;;;;;;2084033;28;20034;-65
2023/05/08 04:57:49;;;;;;;3.10;2.00;;;;;;;;;;2081635;28;20115;-65
2023/05/08 04:59:08;;;;;;;9.43;5.72;;;;;;;;;;2091738;28;20032;-65
2023/05/08 05:00:27;;;;;;;3.60;2.20;;;;;;;;;;2083298;28;20052;-65
2023/05/08 05:01:46;;;;;;;2.92;2.30;;;;;;;;;;2082613;28;20033;-65
2023/05/08 05:03:05;;;;;;;6.80;2.33;;;;;;;;;;2088432;28;20028;-65
2023/05/08 05:04:24;;;;;;;5.45;2.58;;;;;;;;;;2086891;28;20037;-65
2023/05/08 05:05:43;;;;;;;7.72;2.40;;;;;;;;;;2088615;28;20033;-64
2023/05/08 05:07:03;;;;;;;4.43;1.73;;;;;;;;;;2090287;28;20299;-65
2023/05/08 05:08:21;;;;;;;2.78;2.33;;;;;;;;;;2091080;28;20116;-66
2023/05/08 05:09:40;;;;;;;4.35;1.83;;;;;;;;;;2086384;28;20029;-65
2023/05/08 05:10:59;;;;;;;2.33;1.85;;;;;;;;;;2092300;28;20020;-66
2023/05/08 05:12:18;;;;;;;4.10;2.78;;;;;;;;;;2083373;28;20041;-65
2023/05/08 05:13:37;;;;;;;6.18;2.20;;;;;;;;;;2089435;28;20028;-65
2023/05/08 05:14:56;;;;;;;5.55;2.30;;;;;;;;;;2093514;28;20061;-65
2023/05/08 05:16:16;;;;;;;5.45;2.15;;;;;;;;;;2090094;28;20056;-65
2023/05/08 05:17:34;;;;;;;4.80;2.08;;;;;;;;;;2085161;28;20024;-67
2023/05/08 05:18:53;;;;;;;4.75;2.00;;;;;;;;;;2090307;28;20109;-65
2023/05/08 05:20:12;;;;;;;6.80;2.30;;;;;;;;;;2089639;28;20056;-65
2023/05/08 05:21:31;;;;;;;6.80;2.25;;;;;;;;;;2089745;28;20032;-66
2023/05/08 05:22:50;;;;;;;7.10;2.00;;;;;;;;;;2086798;28;20109;-65
2023/05/08 05:24:09;;;;;;;4.85;2.08;;;;;;;;;;2087224;28;20489;-65
2023/05/08 05:25:29;;;;;;;3.92;2.03;;;;;;;;;;2083108;28;20033;-65
2023/05/08 05:26:48;;;;;;;4.03;1.98;;;;;;;;;;2092022;28;20967;-65
2023/05/08 05:28:07;;;;;;;2.13;1.90;;;;;;;;;;2092731;28;20028;-65
2023/05/08 05:29:26;;;;;;;5.18;1.95;;;;;;;;;;2092318;28;20445;-65
2023/05/08 05:30:48;;;;;;;3.35;1.95;;;;;;;;;;2087654;28;20052;-65
2023/05/08 05:32:09;;;;;;;2.83;2.15;;;;;;;;;;2087911;28;20020;-66
2023/05/08 05:33:28;;;;;;;5.78;2.13;;;;;;;;;;2091130;28;20123;-66
2023/05/08 05:34:47;;;;;;;3.00;2.28;;;;;;;;;;2090801;28;20458;-66
2023/05/08 05:36:06;;;;;;;5.47;2.28;;;;;;;;;;2089504;28;20506;-66
2023/05/08 05:37:25;;;;;;;7.25;2.10;;;;;;;;;;2085844;28;20033;-66
2023/05/08 05:38:44;;;;;;;8.23;2.30;;;;;;;;;;2090213;28;20493;-66
2023/05/08 05:40:03;;;;;;;3.90;2.17;;;;;;;;;;2088032;28;20049;-66
2023/05/08 05:41:23;;;;;;;5.18;1.73;;;;;;;;;;2088939;28;20042;-66
2023/05/08 05:42:47;;;;;;;5.03;1.70;;;;;;;;;;2086627;28;20033;-66
2023/05/08 05:44:06;;;;;;;7.25;2.03;;;;;;;;;;2089521;28;20037;-66
2023/05/08 05:45:25;;;;;;;7.07;2.47;;;;;;;;;;2086363;28;20033;-66
2023/05/08 05:46:44;;;;;;;3.80;1.70;;;;;;;;;;2086323;28;20033;-66
2023/05/08 05:48:04;;;;;;;4.20;2.00;;;;;;;;;;2091281;28;20020;-66
2023/05/08 05:49:22;;;;;;;5.55;2.08;;;;;;;;;;2086491;28;20032;-66
2023/05/08 05:50:41;;;;;;;8.25;2.45;;;;;;;;;;2086078;28;20033;-66
2023/05/08 05:52:00;;;;;;;2.38;2.15;;;;;;;;;;2089609;28;20025;-66
2023/05/08 05:53:19;;;;;;;6.55;2.20;;;;;;;;;;2088213;28;20494;-66
2023/05/08 05:54:38;;;;;;;3.85;2.15;;;;;;;;;;2089969;28;20489;-67
2023/05/08 05:55:57;;;;;;;2.40;1.70;;;;;;;;;;2089247;28;20033;-66
2023/05/08 05:57:16;;;;;;;7.95;2.30;;;;;;;;;;2090104;28;20029;-67
2023/05/08 05:58:35;;;;;;;4.88;2.28;;;;;;;;;;2090217;28;20478;-66
2023/05/08 05:59:55;;;;;;;3.70;2.10;;;;;;;;;;2087278;28;20443;-66
2023/05/08 06:01:14;;;;;;;6.70;2.13;;;;;;;;;;2084717;28;20041;-66
2023/05/08 06:02:34;;;;;;;5.30;1.92;;;;;;;;;;2087978;28;20049;-66
2023/05/08 06:03:54;;;;;;;3.35;2.25;;;;;;;;;;2090648;28;20064;-66
2023/05/08 06:05:14;;;;;;;4.05;1.98;;;;;;;;;;2092700;28;20401;-66
2023/05/08 06:06:32;;;;;;;3.95;1.90;;;;;;;;;;2092033;28;20103;-66
2023/05/08 06:07:51;;;;;;;5.22;2.35;;;;;;;;;;2091563;28;20033;-66
2023/05/08 06:09:10;;;;;;;2.33;2.03;;;;;;;;;;2089353;28;20100;-66
2023/05/08 06:10:29;;;;;;;6.25;2.30;;;;;;;;;;2092225;28;20064;-66
2023/05/08 06:11:48;;;;;;;10.27;2.63;;;;;;;;;;2090841;28;20029;-66
2023/05/08 06:13:08;;;;;;;9.77;2.42;;;;;;;;;;2091011;28;20490;-66
2023/05/08 06:14:27;;;;;;;4.47;1.88;;;;;;;;;;2089215;28;20037;-66
2023/05/08 06:15:46;;;;;;;4.07;2.33;;;;;;;;;;2091906;28;20021;-66
2023/05/08 06:17:05;;;;;;;6.68;2.03;;;;;;;;;;2091687;28;20037;-66
2023/05/08 06:18:24;;;;;;;2.80;2.60;;;;;;;;;;2095017;28;20032;-66
2023/05/08 06:19:49;;;;;;;7.32;2.08;;;;;;;;;;2085669;28;20029;-66
2023/05/08 06:21:08;;;;;;;13.02;2.30;;;;;;;;;;2087673;28;20430;-66
2023/05/08 06:22:28;;;;;;;6.90;1.90;;;;;;;;;;2088276;28;20124;-66
2023/05/08 06:23:47;;;;;;;6.97;2.38;;;;;;;;;;2088813;28;20071;-66
2023/05/08 06:25:07;;;;;;;4.70;2.00;;;;;;;;;;2092442;28;20033;-66
2023/05/08 06:26:26;;;;;;;6.60;2.28;;;;;;;;;;2090184;28;20037;-66
2023/05/08 06:27:45;;;;;;;6.43;2.00;;;;;;;;;;2091428;28;20119;-66
2023/05/08 06:29:04;;;;;;;4.07;2.20;;;;;;;;;;2090539;28;20020;-66
2023/05/08 06:30:22;;;;;;;2.20;1.95;;;;;;;;;;2091089;28;20021;-66
2023/05/08 06:31:41;;;;;;;6.95;1.95;;;;;;;;;;2092050;28;20032;-66
2023/05/08 06:33:01;;;;;;;3.55;2.05;;;;;;;;;;2092209;28;20024;-66
2023/05/08 06:34:19;;;;;;;4.63;2.10;;;;;;;;;;2093030;28;20072;-66
2023/05/08 06:35:38;;;;;;;5.43;2.13;;;;;;;;;;2090929;28;20446;-67
2023/05/08 06:36:57;;;;;;;3.58;2.00;;;;;;;;;;2093612;28;20032;-66
2023/05/08 06:38:17;;;;;;;4.75;2.15;;;;;;;;;;2093709;28;20040;-67
2023/05/08 06:39:36;;;;;;;2.88;1.60;;;;;;;;;;2089702;28;20552;-66
2023/05/08 06:40:55;;;;;;;4.63;2.60;;;;;;;;;;2089088;28;20029;-65
2023/05/08 06:42:14;;;;;;;5.13;1.90;;;;;;;;;;2086666;28;20482;-67
2023/05/08 06:43:34;;;;;;;9.52;2.00;;;;;;;;;;2090898;28;20044;-67
2023/05/08 06:44:53;;;;;;;7.93;2.05;;;;;;;;;;2088155;28;20052;-63
2023/05/08 06:46:12;;;;;;;6.43;2.15;;;;;;;;;;2091946;28;20448;-61
2023/05/08 06:47:31;;;;;;;9.15;2.28;;;;;;;;;;2092039;28;20037;-65
2023/05/08 06:48:51;;;;;;;2.38;2.17;;;;;;;;;;2092126;28;20395;-69
2023/05/08 06:50:10;;;;;;;2.58;2.20;;;;;;;;;;2091562;28;20410;-68
2023/05/08 06:51:30;;;;;;;6.85;2.20;;;;;;;;;;2092525;28;20033;-65
2023/05/08 06:52:49;;;;;;;2.13;1.80;;;;;;;;;;2089974;28;20365;-67
2023/05/08 06:54:08;;;;;;;10.43;2.20;;;;;;;;;;2093100;28;20021;-68
2023/05/08 06:55:27;;;;;;;6.70;1.90;;;;;;;;;;2092161;28;20025;-68
2023/05/08 06:56:46;;;;;;;2.25;2.05;;;;;;;;;;2090192;28;20377;-67
2023/05/08 06:58:05;;;;;;;4.85;1.83;;;;;;;;;;2092361;28;20431;-67
2023/05/08 06:59:24;;;;;;;2.17;1.98;;;;;;;;;;2091303;28;20036;-67
2023/05/08 07:00:43;;;;;;;3.90;2.00;;;;;;;;;;2090479;28;20697;-68
2023/05/08 07:02:01;;;;;;;5.65;2.15;;;;;;;;;;2089414;28;20257;-71
2023/05/08 07:03:20;;;;;;;3.53;2.15;;;;;;;;;;2091648;28;20033;-68
2023/05/08 07:04:40;;;;;;;5.45;1.80;;;;;;;;;;2089080;28;20508;-70
2023/05/08 07:05:59;;;;;;;6.35;1.98;;;;;;;;;;2093398;28;20029;-67
2023/05/08 07:07:18;;;;;;;4.50;2.40;;;;;;;;;;2087332;28;20029;-71
2023/05/08 07:08:37;;;;;;;4.18;2.05;;;;;;;;;;2090792;28;20037;-61
2023/05/08 07:09:56;;;;;;;2.50;1.55;;;;;;;;;;2087245;28;20482;-64
2023/05/08 07:11:15;;;;;;;1.90;1.80;;;;;;;;;;2088540;28;20470;-66
2023/05/08 07:12:34;;;;;;;4.05;2.10;;;;;;;;;;2091544;28;20037;-69
2023/05/08 07:13:53;;;;;;;4.53;2.10;;;;;;;;;;2091612;28;20025;-69
2023/05/08 07:15:12;;;;;;;5.25;1.90;;;;;;;;;;2090535;28;20124;-68
2023/05/08 07:16:31;;;;;;;7.43;2.45;;;;;;;;;;2095393;28;20029;-69
2023/05/08 07:17:51;;;;;;;8.93;2.35;;;;;;;;;;2093374;28;20025;-68
2023/05/08 07:19:09;;;;;;;4.93;2.17;;;;;;;;;;2091681;28;20111;-69
2023/05/08 07:20:28;;;;;;;2.45;2.15;;;;;;;;;;2090122;28;20017;-69
2023/05/08 07:21:47;;;;;;;3.78;2.38;;;;;;;;;;2092459;28;20025;-69
2023/05/08 07:23:06;;;;;;;5.10;1.75;;;;;;;;;;2092519;28;20040;-69
2023/05/08 07:24:25;;;;;;;2.47;2.20;;;;;;;;;;2082276;28;20029;-69
2023/05/08 07:25:44;;;;;;;5.40;1.92;;;;;;;;;;2087089;28;20032;-69
2023/05/08 07:27:03;;;;;;;5.32;2.15;;;;;;;;;;2090713;28;20485;-69
2023/05/08 07:28:22;;;;;;;3.88;2.30;;;;;;;;;;2090554;28;20029;-68
2023/05/08 07:29:41;;;;;;;5.15;2.03;;;;;;;;;;2090906;28;20033;-69
2023/05/08 07:31:03;;;;;;;3.33;2.30;;;;;;;;;;2091891;28;20032;-69
2023/05/08 07:32:22;;;;;;;4.38;2.10;;;;;;;;;;2093258;28;20426;-69
2023/05/08 07:33:41;;;;;;;4.07;2.20;;;;;;;;;;2092906;28;20036;-69
2023/05/08 07:35:01;;;;;;;3.10;1.90;;;;;;;;;;2090148;28;20029;-69
2023/05/08 07:36:21;;;;;;;2.95;1.77;;;;;;;;;;2092629;28;20025;-69
2023/05/08 07:37:40;;;;;;;4.97;2.05;;;;;;;;;;2093542;28;20028;-69
2023/05/08 07:38:59;;;;;;;4.38;2.17;;;;;;;;;;2093006;28;20024;-69
2023/05/08 07:40:18;;;;;;;4.35;2.13;;;;;;;;;;2088764;28;20072;-70
2023/05/08 07:41:39;;;;;;;4.32;2.00;;;;;;;;;;2086904;28;20025;-69
2023/05/08 07:42:58;;;;;;;5.20;2.25;;;;;;;;;;2088137;28;20088;-70
2023/05/08 07:44:17;;;;;;;7.35;2.63;;;;;;;;;;2089885;28;20512;-70
2023/05/08 07:45:36;;;;;;;3.17;2.10;;;;;;;;;;2091261;28;20025;-70
2023/05/08 07:46:55;;;;;;;5.18;2.30;;;;;;;;;;2089126;28;20025;-69
2023/05/08 07:48:15;;;;;;;4.80;1.90;;;;;;;;;;2093253;28;20041;-69
2023/05/08 07:49:34;;;;;;;4.97;2.40;;;;;;;;;;2091469;28;20013;-71
2023/05/08 07:50:56;;;;;;;4.65;1.92;;;;;;;;;;2092573;28;20523;-70
2023/05/08 07:52:15;;;;;;;6.60;2.20;;;;;;;;;;2093154;28;20115;-70
2023/05/08 07:53:34;;;;;;;5.53;2.15;;;;;;;;;;2093261;28;20104;-70
2023/05/08 07:54:53;;;;;;;8.40;2.33;;;;;;;;;;2092380;28;20107;-70
2023/05/08 07:56:12;;;;;;;5.45;2.42;;;;;;;;;;2096059;28;20075;-70
2023/05/08 07:57:38;;;;;;;5.22;2.10;;;;;;;;;;2101348;28;20040;-70
2023/05/08 07:58:56;;;;;;;6.75;2.08;;;;;;;;;;2096513;28;20024;-70
2023/05/08 08:00:16;;;;;;;14.77;2.65;;;;;;;;;;2093453;28;20032;-70
2023/05/08 08:01:35;;;;;;;2.08;1.80;;;;;;;;;;2091816;28;20123;-69
2023/05/08 08:02:54;;;;;;;3.78;2.45;;;;;;;;;;2092528;28;20036;-68
2023/05/08 08:04:16;;;;;;;6.03;1.85;;;;;;;;;;2091930;28;20037;-69